sensor_id;sensor_type;location;lat;lon;timestamp;P1;durP1;ratioP1;P2;durP2;ratioP2
27113;SDS011;14648;49.730;8.614;2024-03-17T00:01:38;0.60;;;0.60;;
27113;SDS011;14648;49.730;8.614;2024-03-17T00:04:06;1.17;;;0.90;;
27113;SDS011;14648;49.730;8.614;2024-03-17T00:06:32;0.93;;;0.93;;
27113;SDS011;14648;49.730;8.614;2024-03-17T00:08:58;5.17;;;1.47;;
27113;SDS011;14648;49.730;8.614;2024-03-17T00:11:26;1.03;;;1.03;;
27113;SDS011;14648;49.730;8.614;2024-03-17T00:13:51;1.17;;;1.07;;
27113;SDS011;14648;49.730;8.614;2024-03-17T00:16:17;1.37;;;0.70;;
27113;SDS011;14648;49.730;8.614;2024-03-17T00:18:44;1.40;;;1.10;;
27113;SDS011;14648;49.730;8.614;2024-03-17T00:21:13;0.80;;;0.80;;
27113;SDS011;14648;49.730;8.614;2024-03-17T00:23:39;0.77;;;0.77;;
27113;SDS011;14648;49.730;8.614;2024-03-17T00:26:05;0.67;;;0.67;;
27113;SDS011;14648;49.730;8.614;2024-03-17T00:28:30;1.03;;;0.93;;
27113;SDS011;14648;49.730;8.614;2024-03-17T00:30:57;1.10;;;0.97;;
27113;SDS011;14648;49.730;8.614;2024-03-17T00:33:22;0.80;;;0.70;;
27113;SDS011;14648;49.730;8.614;2024-03-17T00:35:49;1.00;;;0.83;;
27113;SDS011;14648;49.730;8.614;2024-03-17T00:38:15;6.97;;;1.40;;
27113;SDS011;14648;49.730;8.614;2024-03-17T00:40:41;1.10;;;0.90;;
27113;SDS011;14648;49.730;8.614;2024-03-17T00:43:07;2.27;;;1.03;;
27113;SDS011;14648;49.730;8.614;2024-03-17T00:45:32;1.33;;;1.30;;
27113;SDS011;14648;49.730;8.614;2024-03-17T00:47:58;3.47;;;1.00;;
27113;SDS011;14648;49.730;8.614;2024-03-17T00:50:24;3.03;;;1.27;;
27113;SDS011;14648;49.730;8.614;2024-03-17T00:52:50;2.30;;;1.23;;
27113;SDS011;14648;49.730;8.614;2024-03-17T00:55:16;1.80;;;1.07;;
27113;SDS011;14648;49.730;8.614;2024-03-17T00:57:42;3.03;;;0.83;;
27113;SDS011;14648;49.730;8.614;2024-03-17T01:00:08;0.87;;;0.87;;
27113;SDS011;14648;49.730;8.614;2024-03-17T01:02:37;1.43;;;1.33;;
27113;SDS011;14648;49.730;8.614;2024-03-17T01:05:04;2.20;;;1.37;;
27113;SDS011;14648;49.730;8.614;2024-03-17T01:07:31;2.00;;;1.80;;
27113;SDS011;14648;49.730;8.614;2024-03-17T01:09:58;1.40;;;1.30;;
27113;SDS011;14648;49.730;8.614;2024-03-17T01:12:24;0.90;;;0.90;;
27113;SDS011;14648;49.730;8.614;2024-03-17T01:14:51;0.80;;;0.80;;
27113;SDS011;14648;49.730;8.614;2024-03-17T01:17:17;1.30;;;0.80;;
27113;SDS011;14648;49.730;8.614;2024-03-17T01:19:44;2.70;;;1.10;;
27113;SDS011;14648;49.730;8.614;2024-03-17T01:22:10;1.00;;;1.00;;
27113;SDS011;14648;49.730;8.614;2024-03-17T01:24:36;0.90;;;0.90;;
27113;SDS011;14648;49.730;8.614;2024-03-17T01:27:04;2.97;;;1.40;;
27113;SDS011;14648;49.730;8.614;2024-03-17T01:29:31;0.80;;;0.70;;
27113;SDS011;14648;49.730;8.614;2024-03-17T01:31:57;1.17;;;1.07;;
27113;SDS011;14648;49.730;8.614;2024-03-17T01:34:23;1.40;;;1.03;;
27113;SDS011;14648;49.730;8.614;2024-03-17T01:36:48;2.30;;;0.93;;
27113;SDS011;14648;49.730;8.614;2024-03-17T01:39:14;1.00;;;0.90;;
27113;SDS011;14648;49.730;8.614;2024-03-17T01:41:41;2.50;;;0.97;;
27113;SDS011;14648;49.730;8.614;2024-03-17T01:44:07;0.80;;;0.80;;
27113;SDS011;14648;49.730;8.614;2024-03-17T01:46:47;2.30;;;0.80;;
27113;SDS011;14648;49.730;8.614;2024-03-17T01:49:13;0.73;;;0.73;;
27113;SDS011;14648;49.730;8.614;2024-03-17T01:51:38;1.00;;;0.90;;
27113;SDS011;14648;49.730;8.614;2024-03-17T01:54:05;2.30;;;1.27;;
27113;SDS011;14648;49.730;8.614;2024-03-17T01:56:30;1.00;;;1.00;;
27113;SDS011;14648;49.730;8.614;2024-03-17T01:58:56;1.43;;;1.20;;
27113;SDS011;14648;49.730;8.614;2024-03-17T02:01:23;0.63;;;0.63;;
27113;SDS011;14648;49.730;8.614;2024-03-17T02:03:49;1.73;;;0.70;;
27113;SDS011;14648;49.730;8.614;2024-03-17T02:06:14;1.30;;;0.90;;
27113;SDS011;14648;49.730;8.614;2024-03-17T02:08:50;0.80;;;0.80;;
27113;SDS011;14648;49.730;8.614;2024-03-17T02:11:29;0.83;;;0.80;;
27113;SDS011;14648;49.730;8.614;2024-03-17T02:14:01;1.13;;;0.70;;
27113;SDS011;14648;49.730;8.614;2024-03-17T02:16:27;0.97;;;0.60;;
27113;SDS011;14648;49.730;8.614;2024-03-17T02:18:53;0.70;;;0.70;;
27113;SDS011;14648;49.730;8.614;2024-03-17T02:21:21;7.17;;;1.40;;
27113;SDS011;14648;49.730;8.614;2024-03-17T02:23:50;0.50;;;0.50;;
27113;SDS011;14648;49.730;8.614;2024-03-17T02:26:17;0.70;;;0.70;;
27113;SDS011;14648;49.730;8.614;2024-03-17T02:28:44;1.17;;;0.80;;
27113;SDS011;14648;49.730;8.614;2024-03-17T02:31:11;0.77;;;0.60;;
27113;SDS011;14648;49.730;8.614;2024-03-17T02:33:39;0.73;;;0.50;;
27113;SDS011;14648;49.730;8.614;2024-03-17T02:36:05;1.27;;;0.70;;
27113;SDS011;14648;49.730;8.614;2024-03-17T02:38:35;1.17;;;0.70;;
27113;SDS011;14648;49.730;8.614;2024-03-17T02:41:20;1.23;;;1.13;;
27113;SDS011;14648;49.730;8.614;2024-03-17T02:43:46;1.27;;;0.60;;
27113;SDS011;14648;49.730;8.614;2024-03-17T02:46:13;0.60;;;0.50;;
27113;SDS011;14648;49.730;8.614;2024-03-17T02:48:42;0.90;;;0.60;;
27113;SDS011;14648;49.730;8.614;2024-03-17T02:51:14;1.70;;;0.73;;
27113;SDS011;14648;49.730;8.614;2024-03-17T02:53:46;0.90;;;0.77;;
27113;SDS011;14648;49.730;8.614;2024-03-17T02:56:13;0.90;;;0.70;;
27113;SDS011;14648;49.730;8.614;2024-03-17T02:58:43;1.90;;;0.83;;
27113;SDS011;14648;49.730;8.614;2024-03-17T03:01:16;1.30;;;1.20;;
27113;SDS011;14648;49.730;8.614;2024-03-17T03:03:43;1.37;;;0.90;;
27113;SDS011;14648;49.730;8.614;2024-03-17T03:06:10;1.20;;;1.10;;
27113;SDS011;14648;49.730;8.614;2024-03-17T03:08:37;1.00;;;1.00;;
27113;SDS011;14648;49.730;8.614;2024-03-17T03:11:05;1.93;;;0.80;;
27113;SDS011;14648;49.730;8.614;2024-03-17T03:13:40;0.97;;;0.93;;
27113;SDS011;14648;49.730;8.614;2024-03-17T03:16:08;1.83;;;1.10;;
27113;SDS011;14648;49.730;8.614;2024-03-17T03:18:36;1.67;;;0.60;;
27113;SDS011;14648;49.730;8.614;2024-03-17T03:21:04;0.83;;;0.70;;
27113;SDS011;14648;49.730;8.614;2024-03-17T03:23:30;1.13;;;0.70;;
27113;SDS011;14648;49.730;8.614;2024-03-17T03:25:57;0.70;;;0.70;;
27113;SDS011;14648;49.730;8.614;2024-03-17T03:28:25;2.67;;;1.30;;
27113;SDS011;14648;49.730;8.614;2024-03-17T03:30:51;1.87;;;1.00;;
27113;SDS011;14648;49.730;8.614;2024-03-17T03:33:18;1.73;;;0.87;;
27113;SDS011;14648;49.730;8.614;2024-03-17T03:35:45;1.13;;;1.13;;
27113;SDS011;14648;49.730;8.614;2024-03-17T03:38:11;4.60;;;1.27;;
27113;SDS011;14648;49.730;8.614;2024-03-17T03:40:41;1.63;;;1.23;;
27113;SDS011;14648;49.730;8.614;2024-03-17T03:43:07;1.90;;;0.93;;
27113;SDS011;14648;49.730;8.614;2024-03-17T03:45:34;1.13;;;1.03;;
27113;SDS011;14648;49.730;8.614;2024-03-17T03:48:00;1.10;;;1.10;;
27113;SDS011;14648;49.730;8.614;2024-03-17T03:50:30;1.37;;;1.27;;
27113;SDS011;14648;49.730;8.614;2024-03-17T03:52:56;6.20;;;1.23;;
27113;SDS011;14648;49.730;8.614;2024-03-17T03:55:22;1.53;;;1.30;;
27113;SDS011;14648;49.730;8.614;2024-03-17T03:57:49;1.53;;;0.80;;
27113;SDS011;14648;49.730;8.614;2024-03-17T04:00:17;8.07;;;2.03;;
27113;SDS011;14648;49.730;8.614;2024-03-17T04:02:47;1.80;;;1.30;;
27113;SDS011;14648;49.730;8.614;2024-03-17T04:05:15;1.17;;;1.07;;
27113;SDS011;14648;49.730;8.614;2024-03-17T04:07:41;2.00;;;1.37;;
27113;SDS011;14648;49.730;8.614;2024-03-17T04:10:08;2.60;;;2.03;;
27113;SDS011;14648;49.730;8.614;2024-03-17T04:12:35;1.43;;;1.33;;
27113;SDS011;14648;49.730;8.614;2024-03-17T04:15:01;5.33;;;1.20;;
27113;SDS011;14648;49.730;8.614;2024-03-17T04:17:27;3.17;;;1.37;;
27113;SDS011;14648;49.730;8.614;2024-03-17T04:19:53;0.80;;;0.80;;
27113;SDS011;14648;49.730;8.614;2024-03-17T04:22:20;3.07;;;1.07;;
27113;SDS011;14648;49.730;8.614;2024-03-17T04:24:47;2.50;;;1.67;;
27113;SDS011;14648;49.730;8.614;2024-03-17T04:27:28;1.10;;;1.00;;
27113;SDS011;14648;49.730;8.614;2024-03-17T04:29:54;0.63;;;0.63;;
27113;SDS011;14648;49.730;8.614;2024-03-17T04:32:22;1.17;;;1.07;;
27113;SDS011;14648;49.730;8.614;2024-03-17T04:34:49;0.87;;;0.87;;
27113;SDS011;14648;49.730;8.614;2024-03-17T04:37:15;0.70;;;0.67;;
27113;SDS011;14648;49.730;8.614;2024-03-17T04:39:42;1.00;;;1.00;;
27113;SDS011;14648;49.730;8.614;2024-03-17T04:42:09;0.70;;;0.70;;
27113;SDS011;14648;49.730;8.614;2024-03-17T04:44:40;4.30;;;1.23;;
27113;SDS011;14648;49.730;8.614;2024-03-17T04:47:06;0.90;;;0.70;;
27113;SDS011;14648;49.730;8.614;2024-03-17T04:49:37;0.80;;;0.60;;
27113;SDS011;14648;49.730;8.614;2024-03-17T04:52:06;0.70;;;0.70;;
27113;SDS011;14648;49.730;8.614;2024-03-17T04:54:33;1.50;;;0.80;;
27113;SDS011;14648;49.730;8.614;2024-03-17T04:56:59;2.47;;;1.07;;
27113;SDS011;14648;49.730;8.614;2024-03-17T04:59:25;1.37;;;0.80;;
27113;SDS011;14648;49.730;8.614;2024-03-17T05:01:51;1.00;;;0.70;;
27113;SDS011;14648;49.730;8.614;2024-03-17T05:04:18;1.07;;;0.83;;
27113;SDS011;14648;49.730;8.614;2024-03-17T05:06:44;0.60;;;0.60;;
27113;SDS011;14648;49.730;8.614;2024-03-17T05:09:14;0.70;;;0.60;;
27113;SDS011;14648;49.730;8.614;2024-03-17T05:11:41;0.80;;;0.80;;
27113;SDS011;14648;49.730;8.614;2024-03-17T05:14:07;1.00;;;1.00;;
27113;SDS011;14648;49.730;8.614;2024-03-17T05:16:33;1.60;;;0.93;;
27113;SDS011;14648;49.730;8.614;2024-03-17T05:18:59;0.63;;;0.60;;
27113;SDS011;14648;49.730;8.614;2024-03-17T05:21:25;1.37;;;1.00;;
27113;SDS011;14648;49.730;8.614;2024-03-17T05:23:54;10.90;;;1.07;;
27113;SDS011;14648;49.730;8.614;2024-03-17T05:26:22;1.00;;;0.90;;
27113;SDS011;14648;49.730;8.614;2024-03-17T05:28:47;1.00;;;1.00;;
27113;SDS011;14648;49.730;8.614;2024-03-17T05:31:13;0.70;;;0.70;;
27113;SDS011;14648;49.730;8.614;2024-03-17T05:33:43;0.90;;;0.90;;
27113;SDS011;14648;49.730;8.614;2024-03-17T05:36:12;1.10;;;1.00;;
27113;SDS011;14648;49.730;8.614;2024-03-17T05:38:38;0.93;;;0.93;;
27113;SDS011;14648;49.730;8.614;2024-03-17T05:41:04;0.80;;;0.80;;
27113;SDS011;14648;49.730;8.614;2024-03-17T05:43:32;0.70;;;0.70;;
27113;SDS011;14648;49.730;8.614;2024-03-17T05:46:07;0.77;;;0.77;;
27113;SDS011;14648;49.730;8.614;2024-03-17T05:48:34;0.67;;;0.67;;
27113;SDS011;14648;49.730;8.614;2024-03-17T05:51:08;0.87;;;0.80;;
27113;SDS011;14648;49.730;8.614;2024-03-17T05:53:35;1.73;;;1.27;;
27113;SDS011;14648;49.730;8.614;2024-03-17T05:56:05;1.13;;;0.90;;
27113;SDS011;14648;49.730;8.614;2024-03-17T05:58:36;2.10;;;1.10;;
27113;SDS011;14648;49.730;8.614;2024-03-17T06:01:03;1.87;;;1.10;;
27113;SDS011;14648;49.730;8.614;2024-03-17T06:03:29;2.10;;;1.23;;
27113;SDS011;14648;49.730;8.614;2024-03-17T06:05:58;0.80;;;0.80;;
27113;SDS011;14648;49.730;8.614;2024-03-17T06:08:24;1.43;;;1.20;;
27113;SDS011;14648;49.730;8.614;2024-03-17T06:10:50;2.50;;;1.50;;
27113;SDS011;14648;49.730;8.614;2024-03-17T06:13:16;2.50;;;2.30;;
27113;SDS011;14648;49.730;8.614;2024-03-17T06:15:42;9.13;;;1.57;;
27113;SDS011;14648;49.730;8.614;2024-03-17T06:18:14;2.93;;;0.93;;
27113;SDS011;14648;49.730;8.614;2024-03-17T06:20:42;1.33;;;0.97;;
27113;SDS011;14648;49.730;8.614;2024-03-17T06:23:10;4.20;;;1.20;;
27113;SDS011;14648;49.730;8.614;2024-03-17T06:25:46;1.30;;;1.20;;
27113;SDS011;14648;49.730;8.614;2024-03-17T06:28:14;1.67;;;1.30;;
27113;SDS011;14648;49.730;8.614;2024-03-17T06:30:45;1.50;;;1.40;;
27113;SDS011;14648;49.730;8.614;2024-03-17T06:33:24;1.37;;;1.27;;
27113;SDS011;14648;49.730;8.614;2024-03-17T06:35:51;4.33;;;1.50;;
27113;SDS011;14648;49.730;8.614;2024-03-17T06:38:17;5.47;;;2.13;;
27113;SDS011;14648;49.730;8.614;2024-03-17T06:40:49;2.90;;;1.40;;
27113;SDS011;14648;49.730;8.614;2024-03-17T06:43:17;1.20;;;1.10;;
27113;SDS011;14648;49.730;8.614;2024-03-17T06:45:53;1.90;;;1.27;;
27113;SDS011;14648;49.730;8.614;2024-03-17T06:48:23;1.20;;;1.00;;
27113;SDS011;14648;49.730;8.614;2024-03-17T06:50:50;1.60;;;1.50;;
27113;SDS011;14648;49.730;8.614;2024-03-17T06:53:17;2.10;;;1.27;;
27113;SDS011;14648;49.730;8.614;2024-03-17T06:55:49;1.73;;;1.30;;
27113;SDS011;14648;49.730;8.614;2024-03-17T06:58:22;1.47;;;1.37;;
27113;SDS011;14648;49.730;8.614;2024-03-17T07:00:52;2.50;;;1.40;;
27113;SDS011;14648;49.730;8.614;2024-03-17T07:03:20;2.33;;;2.13;;
27113;SDS011;14648;49.730;8.614;2024-03-17T07:05:58;1.37;;;0.80;;
27113;SDS011;14648;49.730;8.614;2024-03-17T07:08:28;1.53;;;1.37;;
27113;SDS011;14648;49.730;8.614;2024-03-17T07:10:58;1.23;;;1.10;;
27113;SDS011;14648;49.730;8.614;2024-03-17T07:13:31;3.30;;;1.57;;
27113;SDS011;14648;49.730;8.614;2024-03-17T07:15:59;3.03;;;1.50;;
27113;SDS011;14648;49.730;8.614;2024-03-17T07:18:27;2.20;;;2.00;;
27113;SDS011;14648;49.730;8.614;2024-03-17T07:20:56;2.97;;;1.80;;
27113;SDS011;14648;49.730;8.614;2024-03-17T07:23:25;2.10;;;1.90;;
27113;SDS011;14648;49.730;8.614;2024-03-17T07:28:21;1.57;;;1.47;;
27113;SDS011;14648;49.730;8.614;2024-03-17T07:33:19;2.83;;;1.70;;
27113;SDS011;14648;49.730;8.614;2024-03-17T07:35:55;2.20;;;2.00;;
27113;SDS011;14648;49.730;8.614;2024-03-17T07:38:25;1.30;;;1.30;;
27113;SDS011;14648;49.730;8.614;2024-03-17T07:40:56;2.90;;;1.63;;
27113;SDS011;14648;49.730;8.614;2024-03-17T07:43:31;1.80;;;1.70;;
27113;SDS011;14648;49.730;8.614;2024-03-17T07:48:33;1.80;;;1.70;;
27113;SDS011;14648;49.730;8.614;2024-03-17T07:51:02;2.93;;;2.70;;
27113;SDS011;14648;49.730;8.614;2024-03-17T07:53:34;2.50;;;2.07;;
27113;SDS011;14648;49.730;8.614;2024-03-17T07:56:08;23.70;;;7.90;;
27113;SDS011;14648;49.730;8.614;2024-03-17T07:58:35;18.13;;;9.13;;
27113;SDS011;14648;49.730;8.614;2024-03-17T08:01:06;22.70;;;9.40;;
27113;SDS011;14648;49.730;8.614;2024-03-17T08:03:36;19.00;;;7.50;;
27113;SDS011;14648;49.730;8.614;2024-03-17T08:06:05;23.03;;;7.50;;
27113;SDS011;14648;49.730;8.614;2024-03-17T08:08:36;12.07;;;6.33;;
27113;SDS011;14648;49.730;8.614;2024-03-17T08:11:05;12.17;;;6.07;;
27113;SDS011;14648;49.730;8.614;2024-03-17T08:13:34;8.93;;;4.73;;
27113;SDS011;14648;49.730;8.614;2024-03-17T08:16:01;9.90;;;2.33;;
27113;SDS011;14648;49.730;8.614;2024-03-17T08:18:30;11.60;;;3.87;;
27113;SDS011;14648;49.730;8.614;2024-03-17T08:20:59;9.20;;;3.67;;
27113;SDS011;14648;49.730;8.614;2024-03-17T08:23:26;6.67;;;3.87;;
27113;SDS011;14648;49.730;8.614;2024-03-17T08:25:53;4.03;;;1.93;;
27113;SDS011;14648;49.730;8.614;2024-03-17T08:28:20;3.23;;;2.30;;
27113;SDS011;14648;49.730;8.614;2024-03-17T08:30:53;4.20;;;2.17;;
27113;SDS011;14648;49.730;8.614;2024-03-17T08:33:23;2.50;;;1.93;;
27113;SDS011;14648;49.730;8.614;2024-03-17T08:35:57;3.10;;;2.00;;
27113;SDS011;14648;49.730;8.614;2024-03-17T08:38:25;2.40;;;2.20;;
27113;SDS011;14648;49.730;8.614;2024-03-17T08:40:53;3.67;;;2.20;;
27113;SDS011;14648;49.730;8.614;2024-03-17T08:43:20;4.73;;;1.83;;
27113;SDS011;14648;49.730;8.614;2024-03-17T08:46:00;7.80;;;3.37;;
27113;SDS011;14648;49.730;8.614;2024-03-17T08:48:32;3.10;;;1.80;;
27113;SDS011;14648;49.730;8.614;2024-03-17T08:50:59;3.83;;;1.70;;
27113;SDS011;14648;49.730;8.614;2024-03-17T08:53:28;2.30;;;2.10;;
27113;SDS011;14648;49.730;8.614;2024-03-17T08:55:55;2.13;;;1.40;;
27113;SDS011;14648;49.730;8.614;2024-03-17T08:58:22;2.20;;;1.47;;
27113;SDS011;14648;49.730;8.614;2024-03-17T09:00:48;1.47;;;1.37;;
27113;SDS011;14648;49.730;8.614;2024-03-17T09:03:14;1.00;;;1.00;;
27113;SDS011;14648;49.730;8.614;2024-03-17T09:05:44;3.27;;;1.43;;
27113;SDS011;14648;49.730;8.614;2024-03-17T09:08:19;1.37;;;1.10;;
27113;SDS011;14648;49.730;8.614;2024-03-17T09:10:49;2.00;;;1.20;;
27113;SDS011;14648;49.730;8.614;2024-03-17T09:13:23;3.17;;;1.10;;
27113;SDS011;14648;49.730;8.614;2024-03-17T09:15:55;1.63;;;1.40;;
27113;SDS011;14648;49.730;8.614;2024-03-17T09:18:25;3.10;;;1.50;;
27113;SDS011;14648;49.730;8.614;2024-03-17T09:23:28;1.00;;;1.00;;
27113;SDS011;14648;49.730;8.614;2024-03-17T09:28:35;2.70;;;1.30;;
27113;SDS011;14648;49.730;8.614;2024-03-17T09:31:01;1.23;;;0.97;;
27113;SDS011;14648;49.730;8.614;2024-03-17T09:33:30;3.40;;;1.20;;
27113;SDS011;14648;49.730;8.614;2024-03-17T09:35:56;1.30;;;1.20;;
27113;SDS011;14648;49.730;8.614;2024-03-17T09:38:31;1.63;;;1.53;;
27113;SDS011;14648;49.730;8.614;2024-03-17T09:40:58;1.30;;;1.17;;
27113;SDS011;14648;49.730;8.614;2024-03-17T09:43:26;8.33;;;1.70;;
27113;SDS011;14648;49.730;8.614;2024-03-17T09:45:57;6.30;;;1.40;;
27113;SDS011;14648;49.730;8.614;2024-03-17T09:48:26;6.80;;;1.50;;
27113;SDS011;14648;49.730;8.614;2024-03-17T09:53:24;1.63;;;1.00;;
27113;SDS011;14648;49.730;8.614;2024-03-17T09:55:54;4.63;;;1.10;;
27113;SDS011;14648;49.730;8.614;2024-03-17T09:58:36;1.13;;;1.10;;
27113;SDS011;14648;49.730;8.614;2024-03-17T10:01:02;1.20;;;1.03;;
27113;SDS011;14648;49.730;8.614;2024-03-17T10:06:30;1.40;;;1.10;;
27113;SDS011;14648;49.730;8.614;2024-03-17T10:08:57;1.40;;;1.00;;
27113;SDS011;14648;49.730;8.614;2024-03-17T10:11:41;1.53;;;1.10;;
27113;SDS011;14648;49.730;8.614;2024-03-17T10:14:07;2.10;;;1.33;;
27113;SDS011;14648;49.730;8.614;2024-03-17T10:16:39;1.47;;;1.20;;
27113;SDS011;14648;49.730;8.614;2024-03-17T10:19:24;2.40;;;1.57;;
27113;SDS011;14648;49.730;8.614;2024-03-17T10:22:11;1.67;;;1.57;;
27113;SDS011;14648;49.730;8.614;2024-03-17T10:24:58;0.90;;;0.90;;
27113;SDS011;14648;49.730;8.614;2024-03-17T10:27:49;1.47;;;1.37;;
27113;SDS011;14648;49.730;8.614;2024-03-17T10:30:28;1.87;;;1.47;;
27113;SDS011;14648;49.730;8.614;2024-03-17T10:32:59;1.30;;;1.20;;
27113;SDS011;14648;49.730;8.614;2024-03-17T10:35:35;1.27;;;1.17;;
27113;SDS011;14648;49.730;8.614;2024-03-17T10:38:51;1.50;;;1.30;;
27113;SDS011;14648;49.730;8.614;2024-03-17T10:41:29;1.67;;;1.57;;
27113;SDS011;14648;49.730;8.614;2024-03-17T10:44:20;1.53;;;1.43;;
27113;SDS011;14648;49.730;8.614;2024-03-17T10:47:12;1.77;;;1.67;;
27113;SDS011;14648;49.730;8.614;2024-03-17T10:53:29;3.13;;;1.47;;
27113;SDS011;14648;49.730;8.614;2024-03-17T10:56:06;1.33;;;1.33;;
27113;SDS011;14648;49.730;8.614;2024-03-17T10:58:44;1.97;;;1.40;;
27113;SDS011;14648;49.730;8.614;2024-03-17T11:04:01;2.23;;;2.03;;
27113;SDS011;14648;49.730;8.614;2024-03-17T11:13:22;2.93;;;1.27;;
27113;SDS011;14648;49.730;8.614;2024-03-17T11:16:29;4.50;;;1.57;;
27113;SDS011;14648;49.730;8.614;2024-03-17T11:19:07;2.07;;;1.20;;
27113;SDS011;14648;49.730;8.614;2024-03-17T11:22:41;1.60;;;1.50;;
27113;SDS011;14648;49.730;8.614;2024-03-17T11:25:45;3.70;;;2.13;;
27113;SDS011;14648;49.730;8.614;2024-03-17T11:37:01;1.67;;;1.57;;
27113;SDS011;14648;49.730;8.614;2024-03-17T11:39:50;1.87;;;1.60;;
27113;SDS011;14648;49.730;8.614;2024-03-17T11:42:26;2.10;;;1.53;;
27113;SDS011;14648;49.730;8.614;2024-03-17T11:44:56;2.37;;;1.70;;
27113;SDS011;14648;49.730;8.614;2024-03-17T11:47:46;3.07;;;2.10;;
27113;SDS011;14648;49.730;8.614;2024-03-17T11:50:13;2.27;;;2.07;;
27113;SDS011;14648;49.730;8.614;2024-03-17T11:52:41;4.53;;;1.60;;
27113;SDS011;14648;49.730;8.614;2024-03-17T11:55:17;2.60;;;2.40;;
27113;SDS011;14648;49.730;8.614;2024-03-17T11:57:47;6.23;;;1.57;;
27113;SDS011;14648;49.730;8.614;2024-03-17T12:00:23;14.03;;;1.70;;
27113;SDS011;14648;49.730;8.614;2024-03-17T12:02:52;1.90;;;1.80;;
27113;SDS011;14648;49.730;8.614;2024-03-17T12:05:24;2.30;;;1.50;;
27113;SDS011;14648;49.730;8.614;2024-03-17T12:07:50;1.70;;;1.60;;
27113;SDS011;14648;49.730;8.614;2024-03-17T12:10:19;2.20;;;1.50;;
27113;SDS011;14648;49.730;8.614;2024-03-17T12:12:46;2.37;;;1.63;;
27113;SDS011;14648;49.730;8.614;2024-03-17T12:15:16;4.77;;;2.30;;
27113;SDS011;14648;49.730;8.614;2024-03-17T12:17:45;2.73;;;2.40;;
27113;SDS011;14648;49.730;8.614;2024-03-17T12:20:18;4.70;;;1.77;;
27113;SDS011;14648;49.730;8.614;2024-03-17T12:22:46;1.70;;;1.60;;
27113;SDS011;14648;49.730;8.614;2024-03-17T12:25:16;2.50;;;2.13;;
27113;SDS011;14648;49.730;8.614;2024-03-17T12:46:34;1.60;;;1.40;;
27113;SDS011;14648;49.730;8.614;2024-03-17T12:49:12;8.33;;;1.57;;
27113;SDS011;14648;49.730;8.614;2024-03-17T12:54:33;3.73;;;2.43;;
27113;SDS011;14648;49.730;8.614;2024-03-17T12:57:23;1.30;;;1.20;;
27113;SDS011;14648;49.730;8.614;2024-03-17T13:00:17;2.43;;;1.60;;
27113;SDS011;14648;49.730;8.614;2024-03-17T13:03:06;1.83;;;1.60;;
27113;SDS011;14648;49.730;8.614;2024-03-17T13:05:33;2.33;;;1.67;;
27113;SDS011;14648;49.730;8.614;2024-03-17T13:08:10;3.93;;;2.77;;
27113;SDS011;14648;49.730;8.614;2024-03-17T13:14:18;1.73;;;1.63;;
27113;SDS011;14648;49.730;8.614;2024-03-17T13:35:02;2.23;;;1.63;;
27113;SDS011;14648;49.730;8.614;2024-03-17T13:37:39;4.77;;;2.10;;
27113;SDS011;14648;49.730;8.614;2024-03-17T13:40:05;3.63;;;2.40;;
27113;SDS011;14648;49.730;8.614;2024-03-17T13:42:32;3.23;;;1.87;;
27113;SDS011;14648;49.730;8.614;2024-03-17T13:44:59;4.87;;;1.93;;
27113;SDS011;14648;49.730;8.614;2024-03-17T13:47:24;3.07;;;2.80;;
27113;SDS011;14648;49.730;8.614;2024-03-17T13:49:50;2.70;;;2.20;;
27113;SDS011;14648;49.730;8.614;2024-03-17T13:52:16;1.80;;;1.70;;
27113;SDS011;14648;49.730;8.614;2024-03-17T13:54:43;1.83;;;1.60;;
27113;SDS011;14648;49.730;8.614;2024-03-17T13:57:43;3.90;;;2.37;;
27113;SDS011;14648;49.730;8.614;2024-03-17T14:00:23;2.63;;;1.93;;
27113;SDS011;14648;49.730;8.614;2024-03-17T14:02:54;3.30;;;2.30;;
27113;SDS011;14648;49.730;8.614;2024-03-17T14:05:24;2.33;;;2.13;;
27113;SDS011;14648;49.730;8.614;2024-03-17T14:07:51;2.77;;;2.10;;
27113;SDS011;14648;49.730;8.614;2024-03-17T14:10:27;4.53;;;2.10;;
27113;SDS011;14648;49.730;8.614;2024-03-17T14:13:16;2.23;;;2.00;;
27113;SDS011;14648;49.730;8.614;2024-03-17T14:15:41;4.10;;;2.47;;
27113;SDS011;14648;49.730;8.614;2024-03-17T14:18:07;4.83;;;2.73;;
27113;SDS011;14648;49.730;8.614;2024-03-17T14:20:33;2.47;;;2.23;;
27113;SDS011;14648;49.730;8.614;2024-03-17T14:22:59;4.50;;;1.80;;
27113;SDS011;14648;49.730;8.614;2024-03-17T14:25:28;1.73;;;1.63;;
27113;SDS011;14648;49.730;8.614;2024-03-17T14:27:54;2.20;;;1.73;;
27113;SDS011;14648;49.730;8.614;2024-03-17T14:30:21;3.13;;;2.43;;
27113;SDS011;14648;49.730;8.614;2024-03-17T14:32:47;7.27;;;2.00;;
27113;SDS011;14648;49.730;8.614;2024-03-17T14:35:15;2.60;;;1.67;;
27113;SDS011;14648;49.730;8.614;2024-03-17T14:37:44;2.87;;;2.30;;
27113;SDS011;14648;49.730;8.614;2024-03-17T14:45:29;3.20;;;1.80;;
27113;SDS011;14648;49.730;8.614;2024-03-17T14:47:55;3.90;;;2.20;;
27113;SDS011;14648;49.730;8.614;2024-03-17T14:50:22;4.43;;;2.00;;
27113;SDS011;14648;49.730;8.614;2024-03-17T14:52:48;2.43;;;2.10;;
27113;SDS011;14648;49.730;8.614;2024-03-17T14:55:14;2.40;;;2.20;;
27113;SDS011;14648;49.730;8.614;2024-03-17T14:57:40;4.30;;;2.13;;
27113;SDS011;14648;49.730;8.614;2024-03-17T15:00:07;2.93;;;2.17;;
27113;SDS011;14648;49.730;8.614;2024-03-17T15:02:44;2.07;;;1.80;;
27113;SDS011;14648;49.730;8.614;2024-03-17T15:05:17;2.53;;;2.03;;
27113;SDS011;14648;49.730;8.614;2024-03-17T15:07:51;2.17;;;1.77;;
27113;SDS011;14648;49.730;8.614;2024-03-17T15:10:17;6.83;;;1.63;;
27113;SDS011;14648;49.730;8.614;2024-03-17T15:12:45;4.77;;;2.70;;
27113;SDS011;14648;49.730;8.614;2024-03-17T15:15:13;1.80;;;1.50;;
27113;SDS011;14648;49.730;8.614;2024-03-17T15:17:39;2.90;;;1.80;;
27113;SDS011;14648;49.730;8.614;2024-03-17T15:20:05;2.00;;;1.90;;
27113;SDS011;14648;49.730;8.614;2024-03-17T15:22:44;3.20;;;1.97;;
27113;SDS011;14648;49.730;8.614;2024-03-17T15:25:14;3.10;;;1.93;;
27113;SDS011;14648;49.730;8.614;2024-03-17T15:27:44;3.27;;;2.50;;
27113;SDS011;14648;49.730;8.614;2024-03-17T15:30:13;3.20;;;2.70;;
27113;SDS011;14648;49.730;8.614;2024-03-17T15:32:45;2.03;;;1.77;;
27113;SDS011;14648;49.730;8.614;2024-03-17T15:35:18;2.70;;;2.00;;
27113;SDS011;14648;49.730;8.614;2024-03-17T15:37:44;3.73;;;2.33;;
27113;SDS011;14648;49.730;8.614;2024-03-17T15:40:10;2.43;;;1.80;;
27113;SDS011;14648;49.730;8.614;2024-03-17T15:45:11;4.73;;;2.67;;
27113;SDS011;14648;49.730;8.614;2024-03-17T15:47:41;2.93;;;1.83;;
27113;SDS011;14648;49.730;8.614;2024-03-17T15:50:07;3.60;;;2.60;;
27113;SDS011;14648;49.730;8.614;2024-03-17T15:52:34;3.60;;;2.40;;
27113;SDS011;14648;49.730;8.614;2024-03-17T15:55:02;3.33;;;1.93;;
27113;SDS011;14648;49.730;8.614;2024-03-17T15:57:31;6.97;;;1.80;;
27113;SDS011;14648;49.730;8.614;2024-03-17T15:59:57;2.07;;;1.90;;
27113;SDS011;14648;49.730;8.614;2024-03-17T16:02:25;2.03;;;1.60;;
27113;SDS011;14648;49.730;8.614;2024-03-17T16:04:51;2.53;;;1.83;;
27113;SDS011;14648;49.730;8.614;2024-03-17T16:07:19;3.20;;;2.30;;
27113;SDS011;14648;49.730;8.614;2024-03-17T16:09:48;2.50;;;2.30;;
27113;SDS011;14648;49.730;8.614;2024-03-17T16:12:14;6.60;;;1.40;;
27113;SDS011;14648;49.730;8.614;2024-03-17T16:14:42;2.70;;;2.07;;
27113;SDS011;14648;49.730;8.614;2024-03-17T16:17:10;2.33;;;2.13;;
27113;SDS011;14648;49.730;8.614;2024-03-17T16:19:36;2.10;;;1.90;;
27113;SDS011;14648;49.730;8.614;2024-03-17T16:22:03;4.17;;;2.40;;
27113;SDS011;14648;49.730;8.614;2024-03-17T16:24:34;2.93;;;2.70;;
27113;SDS011;14648;49.730;8.614;2024-03-17T16:27:02;4.20;;;2.77;;
27113;SDS011;14648;49.730;8.614;2024-03-17T16:29:29;3.30;;;2.03;;
27113;SDS011;14648;49.730;8.614;2024-03-17T16:31:57;8.60;;;3.60;;
27113;SDS011;14648;49.730;8.614;2024-03-17T16:34:27;3.20;;;2.90;;
27113;SDS011;14648;49.730;8.614;2024-03-17T16:36:54;3.50;;;2.37;;